Time;durP1;ratioP1;P1;durP2;ratioP2;P2;SDS_P1;SDS_P2;PMS_P1;PMS_P2;Temp;Humidity;BMP_temperature;BMP_pressure;BME280_temperature;BME280_humidity;BME280_pressure;Samples;Min_cycle;Max_cycle;Signal;HPM_P1;HPM_P2
2023/01/14 00:01:50;;;;;;;;;;;2.20;99.90;;;;;;5093993;28;20382;-75
2023/01/14 00:04:16;;;;;;;;;;;2.20;99.90;;;;;;5097043;28;19966;-75
2023/01/14 00:06:41;;;;;;;;;;;2.20;99.90;;;;;;5098073;28;19959;-75
2023/01/14 00:09:11;;;;;;;;;;;2.20;99.90;;;;;;5098167;28;20356;-75
2023/01/14 00:11:46;;;;;;;;;;;2.20;99.90;;;;;;5097965;28;19908;-75
2023/01/14 00:14:13;;;;;;;;;;;2.10;99.90;;;;;;5097888;28;19915;-76
2023/01/14 00:16:39;;;;;;;;;;;2.20;99.90;;;;;;5096428;28;19915;-75
2023/01/14 00:19:04;;;;;;;;;;;2.10;99.90;;;;;;5097582;28;19916;-75
2023/01/14 00:21:30;;;;;;;;;;;2.10;99.90;;;;;;5098045;28;19912;-78
2023/01/14 00:23:55;;;;;;;;;;;2.10;99.90;;;;;;5097449;28;19927;-75
2023/01/14 00:26:21;;;;;;;;;;;2.10;99.90;;;;;;5097773;28;19916;-75
2023/01/14 00:28:47;;;;;;;;;;;2.00;99.90;;;;;;5097475;28;19916;-75
2023/01/14 00:31:15;;;;;;;;;;;2.00;99.90;;;;;;5097773;28;20379;-75
2023/01/14 00:33:41;;;;;;;;;;;1.90;99.90;;;;;;5097473;28;19962;-75
2023/01/14 00:36:08;;;;;;;;;;;1.90;99.90;;;;;;5097100;28;19943;-75
2023/01/14 00:38:34;;;;;;;;;;;1.90;99.90;;;;;;5097307;28;20011;-75
2023/01/14 00:41:04;;;;;;;;;;;1.80;99.90;;;;;;5097233;28;19951;-75
2023/01/14 00:43:29;;;;;;;;;;;1.80;99.90;;;;;;5097515;28;19951;-75
2023/01/14 00:45:55;;;;;;;;;;;1.70;99.90;;;;;;5097459;28;20284;-75
2023/01/14 00:48:21;;;;;;;;;;;1.80;99.90;;;;;;5096968;28;19908;-74
2023/01/14 00:50:46;;;;;;;;;;;1.90;99.90;;;;;;5096893;28;19935;-76
2023/01/14 00:53:12;;;;;;;;;;;1.90;99.90;;;;;;5096996;28;19927;-75
2023/01/14 00:55:37;;;;;;;;;;;1.80;99.90;;;;;;5097067;28;19912;-75
2023/01/14 00:58:03;;;;;;;;;;;1.70;99.90;;;;;;5096943;28;20011;-75
2023/01/14 01:00:29;;;;;;;;;;;1.70;99.90;;;;;;5096920;28;20407;-74
2023/01/14 01:02:54;;;;;;;;;;;1.60;99.90;;;;;;5097274;28;19919;-74
2023/01/14 01:05:20;;;;;;;;;;;1.60;99.90;;;;;;5096778;28;19980;-74
2023/01/14 01:07:45;;;;;;;;;;;1.50;99.90;;;;;;5096826;28;19962;-74
2023/01/14 01:10:11;;;;;;;;;;;1.40;99.90;;;;;;5096737;28;19943;-74
2023/01/14 01:12:36;;;;;;;;;;;1.40;99.90;;;;;;5096957;28;19919;-74
2023/01/14 01:15:02;;;;;;;;;;;1.40;99.90;;;;;;5095819;28;19971;-74
2023/01/14 01:17:30;;;;;;;;;;;1.40;99.90;;;;;;5096641;28;19955;-74
2023/01/14 01:19:56;;;;;;;;;;;1.40;99.90;;;;;;5078077;28;19916;-74
2023/01/14 01:22:21;;;;;;;;;;;1.40;99.90;;;;;;5096501;28;19913;-74
2023/01/14 01:24:47;;;;;;;;;;;1.40;99.90;;;;;;5096389;28;19916;-74
2023/01/14 01:27:12;;;;;;;;;;;1.30;99.90;;;;;;5097017;28;19999;-74
2023/01/14 01:29:38;;;;;;;;;;;1.30;99.90;;;;;;5095074;28;19912;-74
2023/01/14 01:32:04;;;;;;;;;;;1.40;99.90;;;;;;5096344;28;19955;-74
2023/01/14 01:34:29;;;;;;;;;;;1.30;99.90;;;;;;5096244;28;19912;-74
2023/01/14 01:36:55;;;;;;;;;;;1.30;99.90;;;;;;5096302;28;20287;-74
2023/01/14 01:39:20;;;;;;;;;;;1.40;99.90;;;;;;5096348;28;19935;-74
2023/01/14 01:41:46;;;;;;;;;;;1.40;99.90;;;;;;5096151;28;19909;-74
2023/01/14 01:44:11;;;;;;;;;;;1.40;99.90;;;;;;5096445;28;19923;-74
2023/01/14 01:46:38;;;;;;;;;;;1.40;99.90;;;;;;5096117;28;19931;-74
2023/01/14 01:49:07;;;;;;;;;;;1.40;99.90;;;;;;5096134;28;19943;-74
2023/01/14 01:51:40;;;;;;;;;;;1.40;99.90;;;;;;5095780;28;19909;-74
2023/01/14 01:54:06;;;;;;;;;;;1.50;99.90;;;;;;5094603;28;20291;-74
2023/01/14 01:56:34;;;;;;;;;;;1.50;99.90;;;;;;5080528;28;19912;-74
2023/01/14 01:59:01;;;;;;;;;;;1.50;99.90;;;;;;5075619;28;20288;-74
2023/01/14 02:01:27;;;;;;;;;;;1.50;99.90;;;;;;5075543;28;19912;-74
2023/01/14 02:03:52;;;;;;;;;;;1.50;99.90;;;;;;5073441;28;19923;-74
2023/01/14 02:06:18;;;;;;;;;;;1.50;99.90;;;;;;5077733;28;19916;-73
2023/01/14 02:08:45;;;;;;;;;;;1.50;99.90;;;;;;5082338;28;19919;-74
2023/01/14 02:11:11;;;;;;;;;;;1.50;99.90;;;;;;5074136;28;19909;-73
2023/01/14 02:13:42;;;;;;;;;;;1.50;99.90;;;;;;5085536;28;19915;-73
2023/01/14 02:16:23;;;;;;;;;;;1.50;99.90;;;;;;5085170;28;19915;-74
2023/01/14 02:19:07;;;;;;;;;;;1.50;99.90;;;;;;5086719;28;20327;-74
2023/01/14 02:21:39;;;;;;;;;;;1.40;99.90;;;;;;5075219;28;20000;-74
2023/01/14 02:24:13;;;;;;;;;;;1.40;99.90;;;;;;5081890;28;19919;-74
2023/01/14 02:26:46;;;;;;;;;;;1.40;99.90;;;;;;5084479;28;19995;-74
2023/01/14 02:29:35;;;;;;;;;;;1.30;99.90;;;;;;5074996;28;20430;-74
2023/01/14 02:32:28;;;;;;;;;;;1.30;99.90;;;;;;5081700;28;20351;-74
2023/01/14 02:34:54;;;;;;;;;;;1.30;99.90;;;;;;5088370;28;20242;-74
2023/01/14 02:37:25;;;;;;;;;;;1.30;99.90;;;;;;5094646;28;19908;-74
2023/01/14 02:40:01;;;;;;;;;;;1.30;99.90;;;;;;5086050;28;19908;-74
2023/01/14 02:45:19;;;;;;;;;;;1.30;99.90;;;;;;5073997;28;19966;-74
2023/01/14 02:47:46;;;;;;;;;;;1.30;99.90;;;;;;5074336;28;19908;-74
2023/01/14 02:50:12;;;;;;;;;;;1.30;99.90;;;;;;5074229;28;19912;-74
2023/01/14 02:52:37;;;;;;;;;;;1.30;99.90;;;;;;5074526;28;19920;-74
2023/01/14 02:55:23;;;;;;;;;;;1.20;99.90;;;;;;5074207;28;19913;-74
2023/01/14 02:58:01;;;;;;;;;;;1.20;99.90;;;;;;5074018;28;19908;-74
2023/01/14 03:00:30;;;;;;;;;;;1.20;99.90;;;;;;5073898;28;19908;-74
2023/01/14 03:03:11;;;;;;;;;;;1.20;99.90;;;;;;5074113;28;19919;-74
2023/01/14 03:05:42;;;;;;;;;;;1.20;99.90;;;;;;5074328;28;19913;-74
2023/01/14 03:08:08;;;;;;;;;;;1.20;99.90;;;;;;5074349;28;20276;-74
2023/01/14 03:10:39;;;;;;;;;;;1.20;99.90;;;;;;5083334;28;19908;-74
2023/01/14 03:13:04;;;;;;;;;;;1.10;99.90;;;;;;5094496;28;19909;-74
2023/01/14 03:15:41;;;;;;;;;;;1.10;99.90;;;;;;5093957;28;19916;-73
2023/01/14 03:18:06;;;;;;;;;;;1.10;99.90;;;;;;5094013;28;20364;-74
2023/01/14 03:20:34;;;;;;;;;;;1.10;99.90;;;;;;5093976;28;19908;-74
2023/01/14 03:23:02;;;;;;;;;;;1.10;99.90;;;;;;5094599;28;19912;-74
2023/01/14 03:25:30;;;;;;;;;;;1.10;99.90;;;;;;5093944;28;19985;-74
2023/01/14 03:27:56;;;;;;;;;;;1.10;99.90;;;;;;5094090;28;19919;-74
2023/01/14 03:30:26;;;;;;;;;;;1.10;99.90;;;;;;5093695;28;19919;-74
2023/01/14 03:33:04;;;;;;;;;;;1.20;99.90;;;;;;5094022;28;19908;-74
2023/01/14 03:35:34;;;;;;;;;;;1.10;99.90;;;;;;5093488;28;19908;-74
2023/01/14 03:38:02;;;;;;;;;;;1.10;99.90;;;;;;5093519;28;19961;-74
2023/01/14 03:40:28;;;;;;;;;;;1.10;99.90;;;;;;5093016;28;19909;-74
2023/01/14 03:42:58;;;;;;;;;;;1.20;99.90;;;;;;5093223;28;19919;-74
2023/01/14 03:45:23;;;;;;;;;;;1.20;99.90;;;;;;5091303;28;19913;-75
2023/01/14 03:47:49;;;;;;;;;;;1.20;99.90;;;;;;5074842;28;20425;-74
2023/01/14 03:50:16;;;;;;;;;;;1.30;99.90;;;;;;5073981;28;20001;-74
2023/01/14 03:52:48;;;;;;;;;;;1.30;99.90;;;;;;5074209;28;19915;-74
2023/01/14 03:55:14;;;;;;;;;;;1.30;99.90;;;;;;5072597;28;19931;-73
2023/01/14 03:58:18;;;;;;;;;;;1.30;99.90;;;;;;5073607;28;19909;-73
2023/01/14 04:00:45;;;;;;;;;;;1.30;99.90;;;;;;5051486;28;19909;-74
2023/01/14 04:03:12;;;;;;;;;;;1.30;99.90;;;;;;5051761;28;20088;-74
2023/01/14 04:05:38;;;;;;;;;;;1.30;99.90;;;;;;5062160;28;19923;-74
2023/01/14 04:08:05;;;;;;;;;;;1.30;99.90;;;;;;5072531;28;19955;-74
2023/01/14 04:10:30;;;;;;;;;;;1.30;99.90;;;;;;5073999;28;20328;-74
2023/01/14 04:15:40;;;;;;;;;;;1.30;99.90;;;;;;5073863;28;19967;-74
2023/01/14 04:18:05;;;;;;;;;;;1.30;99.90;;;;;;5073445;28;19956;-74
2023/01/14 04:20:31;;;;;;;;;;;1.30;99.90;;;;;;5073315;28;19913;-74
2023/01/14 04:22:57;;;;;;;;;;;1.30;99.90;;;;;;5073663;28;19915;-74
2023/01/14 04:25:22;;;;;;;;;;;1.20;99.90;;;;;;5073452;28;20281;-74
2023/01/14 04:27:48;;;;;;;;;;;1.20;99.90;;;;;;5089822;28;19919;-74
2023/01/14 04:30:13;;;;;;;;;;;1.20;99.90;;;;;;5093404;28;19985;-74
2023/01/14 04:32:39;;;;;;;;;;;1.20;99.90;;;;;;5093592;28;20280;-74
2023/01/14 04:35:05;;;;;;;;;;;1.20;99.90;;;;;;5093863;28;20398;-74
2023/01/14 04:37:30;;;;;;;;;;;1.20;99.90;;;;;;5093177;28;19912;-74
2023/01/14 04:39:56;;;;;;;;;;;1.20;99.90;;;;;;5093489;28;19908;-74
2023/01/14 04:42:28;;;;;;;;;;;1.20;99.90;;;;;;5092405;28;19912;-74
2023/01/14 04:44:54;;;;;;;;;;;1.20;99.90;;;;;;5092759;28;19923;-74
2023/01/14 04:47:19;;;;;;;;;;;1.20;99.90;;;;;;5093409;28;19908;-74
2023/01/14 04:49:45;;;;;;;;;;;1.20;99.90;;;;;;5094079;28;20002;-74
2023/01/14 04:52:11;;;;;;;;;;;1.20;99.90;;;;;;5096710;28;19943;-74
2023/01/14 04:54:36;;;;;;;;;;;1.10;99.90;;;;;;5078157;28;19913;-74
2023/01/14 04:57:03;;;;;;;;;;;1.10;99.90;;;;;;5076957;28;19912;-74
2023/01/14 04:59:29;;;;;;;;;;;1.10;99.90;;;;;;5075940;28;19951;-74
2023/01/14 05:01:54;;;;;;;;;;;1.10;99.90;;;;;;5076493;28;19916;-74
2023/01/14 05:04:20;;;;;;;;;;;1.10;99.90;;;;;;5076293;28;20392;-74
2023/01/14 05:06:45;;;;;;;;;;;1.00;99.90;;;;;;5076615;28;19931;-74
2023/01/14 05:09:11;;;;;;;;;;;0.90;99.90;;;;;;5075243;28;20261;-74
2023/01/14 05:11:37;;;;;;;;;;;0.90;99.90;;;;;;5076489;28;19934;-74
2023/01/14 05:14:02;;;;;;;;;;;0.90;99.90;;;;;;5076529;28;19919;-74
2023/01/14 05:16:28;;;;;;;;;;;0.80;99.90;;;;;;5076176;28;19919;-74
2023/01/14 05:18:53;;;;;;;;;;;0.80;99.90;;;;;;5076897;28;19920;-74
2023/01/14 05:21:19;;;;;;;;;;;0.80;99.90;;;;;;5075950;28;19919;-74
2023/01/14 05:23:45;;;;;;;;;;;0.80;99.90;;;;;;5076126;28;20013;-74
2023/01/14 05:26:11;;;;;;;;;;;0.70;99.90;;;;;;5076282;28;19954;-74
2023/01/14 05:28:36;;;;;;;;;;;0.70;99.90;;;;;;5076351;28;19974;-74
2023/01/14 05:31:03;;;;;;;;;;;0.70;99.90;;;;;;5075511;28;20003;-74
2023/01/14 05:33:28;;;;;;;;;;;0.70;99.90;;;;;;5076135;28;20257;-74
2023/01/14 05:35:55;;;;;;;;;;;0.70;99.90;;;;;;5075826;28;19957;-74
2023/01/14 05:38:21;;;;;;;;;;;0.70;99.90;;;;;;5075915;28;20368;-74
2023/01/14 05:40:46;;;;;;;;;;;0.80;99.90;;;;;;5076017;28;19913;-74
2023/01/14 05:45:57;;;;;;;;;;;0.80;99.90;;;;;;5087044;28;19927;-74
2023/01/14 05:48:24;;;;;;;;;;;0.80;99.90;;;;;;5095790;28;20368;-74
2023/01/14 05:50:53;;;;;;;;;;;0.90;99.90;;;;;;5096399;28;19908;-74
2023/01/14 05:53:19;;;;;;;;;;;0.80;99.90;;;;;;5095074;28;19908;-74
2023/01/14 05:55:45;;;;;;;;;;;0.90;99.90;;;;;;5096142;28;19915;-74
2023/01/14 05:58:11;;;;;;;;;;;0.90;99.90;;;;;;5095846;28;19915;-74
2023/01/14 06:06:21;;;;;;;;;;;0.90;99.90;;;;;;5082862;28;19926;-74
2023/01/14 06:08:51;;;;;;;;;;;0.90;99.90;;;;;;5089804;28;20376;-74
2023/01/14 06:11:18;;;;;;;;;;;0.80;99.90;;;;;;5076194;28;19909;-74
2023/01/14 06:13:45;;;;;;;;;;;0.80;99.90;;;;;;5094838;28;19946;-74
2023/01/14 06:16:10;;;;;;;;;;;0.80;99.90;;;;;;5091089;28;19912;-74
2023/01/14 06:18:42;;;;;;;;;;;0.80;99.90;;;;;;5087869;28;19939;-74
2023/01/14 06:21:12;;;;;;;;;;;0.70;99.90;;;;;;5094874;28;19912;-74
2023/01/14 06:23:38;;;;;;;;;;;0.80;99.90;;;;;;5093613;28;19954;-75
2023/01/14 06:26:04;;;;;;;;;;;0.70;99.90;;;;;;5094717;28;19912;-74
2023/01/14 06:28:29;;;;;;;;;;;0.70;99.90;;;;;;5082556;28;20395;-74
2023/01/14 06:30:55;;;;;;;;;;;0.70;99.90;;;;;;5075518;28;19912;-74
2023/01/14 06:33:21;;;;;;;;;;;0.70;99.90;;;;;;5074076;28;19978;-74
2023/01/14 06:35:47;;;;;;;;;;;0.60;99.90;;;;;;5075282;28;19913;-74
2023/01/14 06:38:12;;;;;;;;;;;0.70;99.90;;;;;;5074410;28;19944;-74
2023/01/14 06:40:38;;;;;;;;;;;0.70;99.90;;;;;;5080880;28;19908;-75
2023/01/14 06:43:05;;;;;;;;;;;0.60;99.90;;;;;;5092949;28;19916;-74
2023/01/14 06:45:30;;;;;;;;;;;0.70;99.90;;;;;;5093485;28;19913;-74
2023/01/14 06:47:56;;;;;;;;;;;0.70;99.90;;;;;;5095099;28;20008;-74
2023/01/14 06:50:22;;;;;;;;;;;0.70;99.90;;;;;;5094731;28;19920;-74
2023/01/14 06:52:48;;;;;;;;;;;0.70;99.90;;;;;;5095091;28;19909;-74
2023/01/14 06:55:15;;;;;;;;;;;0.60;99.90;;;;;;5095135;28;20018;-74
2023/01/14 06:57:41;;;;;;;;;;;0.60;99.90;;;;;;5095386;28;19951;-74
2023/01/14 07:00:07;;;;;;;;;;;0.60;99.90;;;;;;5095320;28;20382;-74
2023/01/14 07:02:32;;;;;;;;;;;0.60;99.90;;;;;;5095522;28;19991;-74
2023/01/14 07:04:58;;;;;;;;;;;0.60;99.90;;;;;;5095556;28;20360;-74
2023/01/14 07:07:23;;;;;;;;;;;0.60;99.90;;;;;;5095127;28;20352;-74
2023/01/14 07:09:49;;;;;;;;;;;0.60;99.90;;;;;;5093552;28;19920;-74
2023/01/14 07:12:15;;;;;;;;;;;0.60;99.90;;;;;;5074716;28;19917;-74
2023/01/14 07:14:40;;;;;;;;;;;0.70;99.90;;;;;;5074120;28;19912;-74
2023/01/14 07:17:06;;;;;;;;;;;0.70;99.90;;;;;;5073518;28;19971;-74
2023/01/14 07:19:31;;;;;;;;;;;0.70;99.90;;;;;;5074861;28;20323;-74
2023/01/14 07:21:57;;;;;;;;;;;0.70;99.90;;;;;;5073827;28;20318;-74
2023/01/14 07:24:22;;;;;;;;;;;0.70;99.90;;;;;;5076150;28;19961;-74
2023/01/14 07:26:48;;;;;;;;;;;0.60;99.90;;;;;;5077073;28;19912;-74
2023/01/14 07:29:14;;;;;;;;;;;0.60;99.90;;;;;;5059278;28;20289;-74
2023/01/14 07:31:42;;;;;;;;;;;0.60;99.90;;;;;;5077537;28;19970;-74
2023/01/14 07:34:08;;;;;;;;;;;0.60;99.90;;;;;;5079845;28;19908;-74
2023/01/14 07:36:33;;;;;;;;;;;0.70;99.90;;;;;;5077752;28;19912;-73
2023/01/14 07:38:59;;;;;;;;;;;0.70;99.90;;;;;;5077373;28;20007;-74
2023/01/14 07:41:24;;;;;;;;;;;0.70;99.90;;;;;;5090515;28;19915;-74
2023/01/14 07:43:50;;;;;;;;;;;0.70;99.90;;;;;;5096192;28;19919;-74
2023/01/14 07:46:16;;;;;;;;;;;0.80;99.90;;;;;;5094632;28;19923;-74
2023/01/14 07:48:44;;;;;;;;;;;0.70;99.90;;;;;;5095147;28;19914;-74
2023/01/14 07:51:10;;;;;;;;;;;0.80;99.90;;;;;;5095212;28;20372;-74
2023/01/14 07:53:36;;;;;;;;;;;0.80;99.90;;;;;;5093928;28;19966;-74
2023/01/14 07:56:02;;;;;;;;;;;0.80;99.90;;;;;;5095126;28;19908;-74
2023/01/14 07:58:27;;;;;;;;;;;0.80;99.90;;;;;;5092390;28;19909;-74
2023/01/14 08:00:53;;;;;;;;;;;0.80;99.90;;;;;;5093916;28;19962;-75
2023/01/14 08:03:19;;;;;;;;;;;0.70;99.90;;;;;;5093431;28;20066;-75
2023/01/14 08:05:45;;;;;;;;;;;0.80;99.90;;;;;;5093683;28;19912;-75
2023/01/14 08:08:11;;;;;;;;;;;0.70;99.90;;;;;;5094497;28;19912;-76
2023/01/14 08:10:37;;;;;;;;;;;0.80;99.90;;;;;;5086069;28;19958;-76
2023/01/14 08:13:02;;;;;;;;;;;0.80;99.90;;;;;;5074398;28;20368;-76
2023/01/14 08:15:28;;;;;;;;;;;0.80;99.90;;;;;;5074837;28;19971;-76
2023/01/14 08:17:54;;;;;;;;;;;0.80;99.90;;;;;;5073882;28;20015;-76
2023/01/14 08:20:22;;;;;;;;;;;0.80;99.90;;;;;;5073837;28;20449;-76
2023/01/14 08:22:58;;;;;;;;;;;0.80;99.90;;;;;;5073784;28;19909;-76
2023/01/14 08:25:24;;;;;;;;;;;0.90;99.90;;;;;;5076964;28;19913;-76
2023/01/14 08:27:49;;;;;;;;;;;0.80;99.90;;;;;;5077575;28;19919;-75
2023/01/14 08:30:15;;;;;;;;;;;0.80;99.90;;;;;;5076078;28;20013;-76
2023/01/14 08:32:41;;;;;;;;;;;0.90;99.90;;;;;;5077203;28;20456;-77
2023/01/14 08:35:06;;;;;;;;;;;0.90;99.90;;;;;;5077160;28;19913;-77
2023/01/14 08:37:32;;;;;;;;;;;0.80;99.90;;;;;;5077338;28;19939;-77
2023/01/14 08:39:58;;;;;;;;;;;0.80;99.90;;;;;;5080057;28;20279;-77
2023/01/14 08:42:23;;;;;;;;;;;0.80;99.90;;;;;;5097153;28;19908;-76
2023/01/14 08:44:49;;;;;;;;;;;0.80;99.90;;;;;;5097148;28;19912;-75
2023/01/14 08:47:15;;;;;;;;;;;0.80;99.90;;;;;;5097097;28;20310;-75
2023/01/14 08:49:40;;;;;;;;;;;0.80;99.90;;;;;;5097167;28;19959;-75
2023/01/14 08:52:06;;;;;;;;;;;0.80;99.90;;;;;;5097232;28;19920;-75
2023/01/14 08:54:32;;;;;;;;;;;0.90;99.90;;;;;;5097104;28;19912;-75
2023/01/14 08:56:59;;;;;;;;;;;0.90;99.90;;;;;;5097083;28;19920;-75
2023/01/14 08:59:25;;;;;;;;;;;0.90;99.90;;;;;;5095760;28;19915;-75
2023/01/14 09:01:51;;;;;;;;;;;0.90;99.90;;;;;;5097227;28;19912;-76
2023/01/14 09:04:16;;;;;;;;;;;1.00;99.90;;;;;;5096836;28;19916;-75
2023/01/14 09:17:39;;;;;;;;;;;1.20;99.90;;;;;;5091768;28;20012;-77
2023/01/14 09:20:08;;;;;;;;;;;1.20;99.90;;;;;;5092677;28;20376;-77
2023/01/14 09:22:33;;;;;;;;;;;1.20;99.90;;;;;;5094957;28;19940;-77
2023/01/14 09:24:59;;;;;;;;;;;1.30;99.90;;;;;;5094710;28;20399;-77
2023/01/14 09:27:27;;;;;;;;;;;1.30;99.90;;;;;;5094748;28;19950;-77
2023/01/14 09:29:53;;;;;;;;;;;1.30;99.90;;;;;;5092251;28;20352;-76
2023/01/14 09:32:18;;;;;;;;;;;1.30;99.90;;;;;;5075485;28;19999;-77
2023/01/14 09:34:47;;;;;;;;;;;1.30;99.90;;;;;;5074563;28;20377;-77
2023/01/14 09:37:19;;;;;;;;;;;1.30;99.90;;;;;;5074346;28;19954;-77
2023/01/14 09:39:44;;;;;;;;;;;1.40;99.90;;;;;;5076295;28;19912;-77
2023/01/14 09:42:15;;;;;;;;;;;1.40;99.90;;;;;;5076565;28;19921;-77
2023/01/14 09:44:41;;;;;;;;;;;1.40;99.90;;;;;;5075999;28;19912;-77
2023/01/14 09:47:12;;;;;;;;;;;1.50;99.90;;;;;;5074693;28;20384;-77
2023/01/14 09:49:38;;;;;;;;;;;1.60;99.90;;;;;;5075633;28;19909;-77
2023/01/14 09:52:14;;;;;;;;;;;1.70;99.90;;;;;;5075868;28;20011;-77
2023/01/14 09:54:45;;;;;;;;;;;1.70;99.90;;;;;;5075669;28;19909;-77
2023/01/14 09:57:20;;;;;;;;;;;1.80;99.90;;;;;;5075764;28;19908;-77
2023/01/14 09:59:51;;;;;;;;;;;1.90;99.90;;;;;;5075873;28;19954;-77
2023/01/14 10:02:35;;;;;;;;;;;2.00;99.90;;;;;;5075722;28;19909;-77
2023/01/14 10:05:19;;;;;;;;;;;2.00;99.90;;;;;;5076425;28;19966;-76
2023/01/14 10:07:45;;;;;;;;;;;2.10;99.90;;;;;;5075999;28;19915;-76
2023/01/14 10:10:18;;;;;;;;;;;2.10;99.90;;;;;;5077796;28;19913;-77
2023/01/14 10:12:45;;;;;;;;;;;2.20;99.90;;;;;;5075846;28;19915;-77
2023/01/14 10:15:29;;;;;;;;;;;2.30;99.90;;;;;;5076317;28;19955;-77
2023/01/14 10:18:06;;;;;;;;;;;2.40;99.90;;;;;;5075672;28;20384;-77
2023/01/14 10:20:43;;;;;;;;;;;2.50;99.90;;;;;;5075947;28;19915;-77
2023/01/14 10:23:12;;;;;;;;;;;2.50;99.90;;;;;;5075691;28;19908;-77
2023/01/14 10:25:38;;;;;;;;;;;2.60;99.90;;;;;;5076158;28;19919;-77
2023/01/14 10:28:08;;;;;;;;;;;2.70;99.90;;;;;;5074648;28;20352;-77
2023/01/14 10:30:35;;;;;;;;;;;2.70;99.90;;;;;;5075549;28;19908;-77
2023/01/14 10:33:04;;;;;;;;;;;2.80;99.90;;;;;;5075581;28;19938;-77
2023/01/14 10:35:32;;;;;;;;;;;2.80;99.90;;;;;;5075232;28;19909;-77
2023/01/14 10:37:57;;;;;;;;;;;2.90;99.90;;;;;;5075071;28;19944;-77
2023/01/14 10:40:24;;;;;;;;;;;2.90;99.90;;;;;;5075663;28;19944;-77
2023/01/14 10:42:51;;;;;;;;;;;3.00;99.90;;;;;;5075292;28;19915;-77
2023/01/14 10:45:16;;;;;;;;;;;3.00;99.90;;;;;;5075226;28;20288;-77
2023/01/14 10:47:43;;;;;;;;;;;3.10;99.90;;;;;;5072196;28;19908;-76
2023/01/14 10:50:12;;;;;;;;;;;3.10;99.90;;;;;;5074064;28;20257;-76
2023/01/14 10:52:37;;;;;;;;;;;3.20;99.90;;;;;;5074275;28;19934;-76
2023/01/14 10:55:12;;;;;;;;;;;3.20;99.90;;;;;;5074335;28;19912;-76
2023/01/14 10:57:43;;;;;;;;;;;3.20;99.90;;;;;;5074283;28;19999;-76
2023/01/14 11:00:26;;;;;;;;;;;3.30;99.90;;;;;;5074171;28;19909;-76
2023/01/14 11:02:51;;;;;;;;;;;3.40;99.90;;;;;;5074503;28;19916;-76
2023/01/14 11:05:32;;;;;;;;;;;3.40;99.90;;;;;;5074100;28;19912;-76
2023/01/14 11:08:01;;;;;;;;;;;3.50;99.90;;;;;;5074393;28;19908;-76
2023/01/14 11:10:28;;;;;;;;;;;3.60;99.90;;;;;;5074045;28;19908;-76
2023/01/14 11:13:12;;;;;;;;;;;3.60;99.90;;;;;;5074325;28;19915;-76
2023/01/14 11:15:40;;;;;;;;;;;3.70;99.90;;;;;;5074208;28;19908;-75
2023/01/14 11:18:17;;;;;;;;;;;3.80;99.90;;;;;;5073801;28;19952;-76
2023/01/14 11:20:43;;;;;;;;;;;3.80;99.90;;;;;;5073582;28;20037;-75
2023/01/14 11:23:16;;;;;;;;;;;3.80;99.90;;;;;;5073879;28;19940;-76
2023/01/14 11:25:41;;;;;;;;;;;3.90;99.90;;;;;;5073259;28;20376;-74
2023/01/14 11:28:07;;;;;;;;;;;3.90;99.90;;;;;;5074428;28;19912;-75
2023/01/14 11:30:33;;;;;;;;;;;4.00;99.90;;;;;;5073852;28;19913;-74
2023/01/14 11:32:59;;;;;;;;;;;4.00;99.90;;;;;;5074111;28;20003;-75
2023/01/14 11:35:28;;;;;;;;;;;4.10;99.90;;;;;;5081452;28;19912;-75
2023/01/14 11:37:54;;;;;;;;;;;4.10;99.90;;;;;;5093990;28;19908;-75
2023/01/14 11:41:28;;;;;;;;;;;4.20;99.90;;;;;;5088038;28;20269;-75
2023/01/14 11:43:10;;;;;;;;;;;4.20;99.90;;;;;;5073819;28;19909;-75
2023/01/14 11:45:36;;;;;;;;;;;4.20;99.90;;;;;;5073410;28;20429;-75
2023/01/14 11:48:01;;;;;;;;;;;4.30;99.90;;;;;;5072861;28;19916;-75
2023/01/14 11:50:27;;;;;;;;;;;4.30;99.90;;;;;;5073883;28;20012;-75
2023/01/14 11:53:04;;;;;;;;;;;4.30;99.90;;;;;;5073638;28;19909;-75
2023/01/14 11:55:32;;;;;;;;;;;4.30;99.90;;;;;;5073323;28;19908;-75
2023/01/14 11:58:18;;;;;;;;;;;4.30;99.90;;;;;;5073586;28;19916;-75
2023/01/14 12:00:53;;;;;;;;;;;4.40;99.90;;;;;;5077188;28;19908;-74
2023/01/14 12:03:39;;;;;;;;;;;4.40;99.90;;;;;;5077556;28;19916;-75
2023/01/14 12:06:07;;;;;;;;;;;4.40;99.90;;;;;;5073622;28;19912;-77
2023/01/14 12:08:34;;;;;;;;;;;4.50;99.90;;;;;;5077651;28;20440;-77
2023/01/14 12:11:01;;;;;;;;;;;4.40;99.90;;;;;;5078066;28;19908;-76
2023/01/14 12:16:49;;;;;;;;;;;4.50;99.90;;;;;;5077796;28;20407;-77
2023/01/14 12:19:41;;;;;;;;;;;4.50;99.90;;;;;;5077860;28;19917;-77
2023/01/14 12:22:12;;;;;;;;;;;4.50;99.90;;;;;;5076462;28;19916;-77
2023/01/14 12:24:50;;;;;;;;;;;4.60;99.90;;;;;;5077728;28;19935;-77
2023/01/14 12:27:41;;;;;;;;;;;4.70;99.90;;;;;;5077699;28;19916;-77
2023/01/14 12:30:07;;;;;;;;;;;4.70;99.90;;;;;;5077365;28;19940;-77
2023/01/14 12:32:34;;;;;;;;;;;4.70;99.90;;;;;;5077424;28;19908;-76
2023/01/14 12:35:00;;;;;;;;;;;4.70;99.90;;;;;;5083676;28;19919;-76
2023/01/14 12:37:50;;;;;;;;;;;4.70;99.90;;;;;;5097380;28;19919;-77
2023/01/14 12:46:08;;;;;;;;;;;4.60;99.90;;;;;;5097711;28;20406;-76
2023/01/14 12:48:34;;;;;;;;;;;4.60;99.90;;;;;;5097360;28;19944;-76
2023/01/14 12:51:15;;;;;;;;;;;4.60;99.90;;;;;;5097241;28;19912;-76
2023/01/14 12:53:46;;;;;;;;;;;4.60;99.90;;;;;;5097287;28;19908;-76
2023/01/14 12:56:24;;;;;;;;;;;4.60;99.90;;;;;;5097198;28;19951;-77
2023/01/14 12:58:55;;;;;;;;;;;4.60;99.90;;;;;;5097117;28;19908;-77
2023/01/14 13:01:22;;;;;;;;;;;4.60;99.90;;;;;;5095924;28;19908;-76
2023/01/14 13:03:52;;;;;;;;;;;4.60;99.90;;;;;;5096901;28;19908;-76
2023/01/14 13:06:44;;;;;;;;;;;4.60;99.90;;;;;;5097124;28;19915;-77
2023/01/14 13:09:18;;;;;;;;;;;4.60;99.90;;;;;;5092622;28;19908;-77
2023/01/14 13:11:48;;;;;;;;;;;4.60;99.90;;;;;;5096233;28;20344;-77
2023/01/14 13:14:19;;;;;;;;;;;4.50;99.90;;;;;;5097002;28;19908;-77
2023/01/14 13:16:45;;;;;;;;;;;4.50;99.90;;;;;;5096894;28;19916;-77
2023/01/14 13:19:43;;;;;;;;;;;4.50;99.90;;;;;;5097239;28;19912;-77
2023/01/14 13:22:09;;;;;;;;;;;4.50;99.90;;;;;;5073759;28;19958;-77
2023/01/14 13:24:36;;;;;;;;;;;4.50;99.90;;;;;;5096893;28;19920;-77
2023/01/14 13:27:04;;;;;;;;;;;4.50;99.90;;;;;;5096929;28;19908;-77
2023/01/14 13:29:31;;;;;;;;;;;4.60;99.90;;;;;;5097355;28;20380;-77
2023/01/14 13:31:57;;;;;;;;;;;4.60;99.90;;;;;;5096917;28;20393;-77
2023/01/14 13:34:26;;;;;;;;;;;4.60;99.90;;;;;;5096926;28;19912;-77
2023/01/14 13:37:02;;;;;;;;;;;4.60;99.90;;;;;;5096817;28;19962;-77
2023/01/14 13:39:28;;;;;;;;;;;4.60;99.90;;;;;;5096601;28;19908;-77
2023/01/14 13:41:57;;;;;;;;;;;4.60;99.90;;;;;;5096907;28;19908;-77
2023/01/14 13:44:33;;;;;;;;;;;4.60;99.90;;;;;;5096700;28;20261;-77
2023/01/14 13:47:03;;;;;;;;;;;4.60;99.90;;;;;;5097125;28;19908;-77
2023/01/14 13:49:34;;;;;;;;;;;4.60;99.90;;;;;;5096874;28;19966;-77
2023/01/14 13:52:21;;;;;;;;;;;4.60;99.90;;;;;;5096555;28;19915;-77
2023/01/14 13:54:54;;;;;;;;;;;4.60;99.90;;;;;;5096332;28;19985;-77
2023/01/14 13:57:32;;;;;;;;;;;4.50;99.90;;;;;;5097135;28;20333;-77
2023/01/14 14:00:00;;;;;;;;;;;4.50;99.90;;;;;;5096712;28;19914;-77
2023/01/14 14:02:40;;;;;;;;;;;4.50;99.90;;;;;;5096217;28;19912;-77
2023/01/14 14:05:14;;;;;;;;;;;4.50;99.90;;;;;;5096330;28;20356;-77
2023/01/14 14:07:43;;;;;;;;;;;4.50;99.90;;;;;;5095087;28;19931;-77
2023/01/14 14:10:17;;;;;;;;;;;4.50;99.90;;;;;;5096403;28;19910;-77
2023/01/14 14:15:32;;;;;;;;;;;4.50;99.90;;;;;;5096967;28;20371;-77
2023/01/14 14:17:59;;;;;;;;;;;4.50;99.90;;;;;;5095836;28;19920;-77
2023/01/14 14:20:39;;;;;;;;;;;4.50;99.90;;;;;;5094672;28;19909;-77
2023/01/14 14:23:07;;;;;;;;;;;4.50;99.90;;;;;;5096150;28;19915;-77
2023/01/14 14:25:35;;;;;;;;;;;4.50;99.90;;;;;;5095802;28;19912;-77
2023/01/14 14:28:02;;;;;;;;;;;4.50;99.90;;;;;;5095787;28;19908;-77
2023/01/14 14:30:31;;;;;;;;;;;4.50;99.90;;;;;;5094984;28;20461;-77
2023/01/14 14:32:56;;;;;;;;;;;4.50;99.90;;;;;;5095538;28;20311;-77
2023/01/14 14:35:22;;;;;;;;;;;4.40;99.90;;;;;;5096391;28;19908;-77
2023/01/14 14:37:49;;;;;;;;;;;4.50;99.90;;;;;;5094977;28;20428;-77
2023/01/14 14:40:27;;;;;;;;;;;4.50;99.90;;;;;;5095412;28;19908;-77
2023/01/14 14:42:53;;;;;;;;;;;4.50;99.90;;;;;;5095740;28;19915;-77
2023/01/14 14:45:28;;;;;;;;;;;4.40;99.90;;;;;;5096108;28;19916;-77
2023/01/14 14:47:54;;;;;;;;;;;4.40;99.90;;;;;;5095591;28;19953;-77
2023/01/14 14:50:28;;;;;;;;;;;4.40;99.90;;;;;;5095315;28;19912;-77
2023/01/14 14:52:53;;;;;;;;;;;4.30;99.90;;;;;;5095754;28;19908;-77
2023/01/14 14:55:19;;;;;;;;;;;4.30;99.90;;;;;;5100009;28;19915;-77
2023/01/14 14:57:44;;;;;;;;;;;4.30;99.90;;;;;;5101905;28;19919;-77
2023/01/14 15:00:15;;;;;;;;;;;4.20;99.90;;;;;;5097992;28;19916;-77
2023/01/14 15:02:45;;;;;;;;;;;4.20;99.90;;;;;;5095213;28;19936;-77
2023/01/14 15:05:18;;;;;;;;;;;4.10;99.90;;;;;;5095641;28;19999;-77
2023/01/14 15:07:44;;;;;;;;;;;4.00;99.90;;;;;;5094779;28;19909;-77
2023/01/14 15:10:17;;;;;;;;;;;4.00;99.90;;;;;;5094807;28;19961;-77
2023/01/14 15:12:42;;;;;;;;;;;3.90;99.90;;;;;;5094874;28;19908;-76
2023/01/14 15:15:21;;;;;;;;;;;3.80;99.90;;;;;;5098401;28;20311;-80
2023/01/14 15:17:48;;;;;;;;;;;3.80;99.90;;;;;;5098146;28;20322;-80